Terminal Aerodrome Forecast
Issued by NWS

Home | Current Version | Previous Version | Text Only | Print | Product List | Glossary On
Versions: 1 2 3 4 5 6 7 8 9 10 11 12
460
FTUS45 KABQ 062338
TAFTCC
TAF
KTCC 062338Z 0700/0724 17020G30KT P6SM FEW120
     FM070200 17015G25KT P6SM SCT110
     FM071500 22023G33KT P6SM SKC=

USA.gov is the U.S. government's official web portal to all federal, state and local government web resources and services.